Time;durP1;ratioP1;P1;durP2;ratioP2;P2;SDS_P1;SDS_P2;PMS_P1;PMS_P2;Temp;Humidity;BMP_temperature;BMP_pressure;BME280_temperature;BME280_humidity;BME280_pressure;Samples;Min_cycle;Max_cycle;Signal;HPM_P1;HPM_P2
2022/11/27 00:01:13;;;;;;;15.88;4.45;;;;;;;;;;5054014;28;20136;-83
2022/11/27 00:03:42;;;;;;;12.90;5.03;;;;;;;;;;5053186;28;20051;-82
2022/11/27 00:06:15;;;;;;;19.60;4.20;;;;;;;;;;5065532;28;20042;-81
2022/11/27 00:08:43;;;;;;;16.38;4.20;;;;;;;;;;5049783;28;20041;-82
2022/11/27 00:11:17;;;;;;;17.45;4.20;;;;;;;;;;5055102;28;20060;-83
2022/11/27 00:13:45;;;;;;;13.82;4.60;;;;;;;;;;5053000;28;20060;-82
2022/11/27 00:16:13;;;;;;;23.27;4.85;;;;;;;;;;5054349;28;20054;-82
2022/11/27 00:18:41;;;;;;;16.00;4.68;;;;;;;;;;5055279;28;20053;-82
2022/11/27 00:21:13;;;;;;;12.88;4.22;;;;;;;;;;5055145;28;20041;-82
2022/11/27 00:23:41;;;;;;;19.00;4.30;;;;;;;;;;5059320;28;20056;-82
2022/11/27 00:26:09;;;;;;;18.52;4.45;;;;;;;;;;5056644;28;20049;-82
2022/11/27 00:28:40;;;;;;;16.92;4.50;;;;;;;;;;5060175;28;20049;-82
2022/11/27 00:31:15;;;;;;;18.42;4.45;;;;;;;;;;5059536;28;20037;-82
2022/11/27 00:33:42;;;;;;;15.90;4.60;;;;;;;;;;5052132;28;20041;-82
2022/11/27 00:36:10;;;;;;;19.83;4.88;;;;;;;;;;5059164;28;20042;-82
2022/11/27 00:38:40;;;;;;;11.32;4.60;;;;;;;;;;5063196;28;20056;-82
2022/11/27 00:41:24;;;;;;;17.35;4.53;;;;;;;;;;5063158;28;20049;-82
2022/11/27 00:43:52;;;;;;;13.60;4.53;;;;;;;;;;5060920;28;20105;-82
2022/11/27 00:46:21;;;;;;;14.25;4.22;;;;;;;;;;5074539;28;20848;-81
2022/11/27 00:48:55;;;;;;;15.18;4.13;;;;;;;;;;5056133;28;20110;-81
2022/11/27 00:51:23;;;;;;;15.57;4.25;;;;;;;;;;5057122;28;20129;-82
2022/11/27 00:53:50;;;;;;;15.10;4.38;;;;;;;;;;5060820;28;20055;-82
2022/11/27 00:56:28;;;;;;;15.73;4.20;;;;;;;;;;5060591;28;20056;-82
2022/11/27 00:58:56;;;;;;;13.55;4.50;;;;;;;;;;5061021;28;20048;-82
2022/11/27 01:01:31;;;;;;;13.40;4.55;;;;;;;;;;5051208;28;20038;-82
2022/11/27 01:04:00;;;;;;;16.92;4.13;;;;;;;;;;5072197;28;20720;-82
2022/11/27 01:06:27;;;;;;;16.40;4.38;;;;;;;;;;5061489;28;20073;-81
2022/11/27 01:08:54;;;;;;;13.13;4.13;;;;;;;;;;5061179;28;20048;-82
2022/11/27 01:11:27;;;;;;;21.17;4.63;;;;;;;;;;5050861;28;20149;-82
2022/11/27 01:14:10;;;;;;;14.07;4.78;;;;;;;;;;5055511;28;20050;-81
2022/11/27 01:16:37;;;;;;;13.20;4.47;;;;;;;;;;5059768;28;20054;-82
2022/11/27 01:19:12;;;;;;;19.02;4.43;;;;;;;;;;5062413;28;20061;-82
2022/11/27 01:21:40;;;;;;;13.50;4.43;;;;;;;;;;5056833;28;20068;-82
2022/11/27 01:24:11;;;;;;;12.73;4.30;;;;;;;;;;5058129;28;20050;-81
2022/11/27 01:26:41;;;;;;;21.42;5.05;;;;;;;;;;5060085;28;20064;-82
2022/11/27 01:29:11;;;;;;;18.80;4.57;;;;;;;;;;5073275;28;20085;-82
2022/11/27 01:31:39;;;;;;;12.80;4.03;;;;;;;;;;5054972;28;20045;-82
2022/11/27 01:34:11;;;;;;;17.85;4.55;;;;;;;;;;5059617;28;20046;-81
2022/11/27 01:36:44;;;;;;;14.05;4.65;;;;;;;;;;5058836;28;20061;-81
2022/11/27 01:39:23;;;;;;;16.35;4.03;;;;;;;;;;5059937;28;20076;-82
2022/11/27 01:41:50;;;;;;;19.40;4.65;;;;;;;;;;5056423;28;20057;-82
2022/11/27 01:44:23;;;;;;;12.32;3.78;;;;;;;;;;5059731;28;20053;-82
2022/11/27 01:47:00;;;;;;;16.13;3.95;;;;;;;;;;5060552;28;20072;-82
2022/11/27 01:49:41;;;;;;;13.68;4.15;;;;;;;;;;5057535;28;20061;-82
2022/11/27 01:52:13;;;;;;;17.63;4.63;;;;;;;;;;5056408;28;20058;-81
2022/11/27 01:54:51;;;;;;;15.15;4.68;;;;;;;;;;5059210;28;21289;-81
2022/11/27 01:57:21;;;;;;;11.55;3.85;;;;;;;;;;5051678;28;20049;-81
2022/11/27 01:59:50;;;;;;;18.77;4.78;;;;;;;;;;5052675;28;20072;-82
2022/11/27 02:02:18;;;;;;;13.75;4.10;;;;;;;;;;5058041;28;20912;-82
2022/11/27 02:04:46;;;;;;;13.20;4.18;;;;;;;;;;5055048;28;20065;-81
2022/11/27 02:07:15;;;;;;;23.27;5.07;;;;;;;;;;5056342;28;20057;-82
2022/11/27 02:09:42;;;;;;;12.88;4.40;;;;;;;;;;5060025;28;20050;-82
2022/11/27 02:12:24;;;;;;;15.23;4.00;;;;;;;;;;5061685;28;20055;-82
2022/11/27 02:14:54;;;;;;;22.95;5.18;;;;;;;;;;5055879;28;20049;-82
2022/11/27 02:17:40;;;;;;;18.27;4.13;;;;;;;;;;5055621;28;20052;-81
2022/11/27 02:20:07;;;;;;;13.40;3.95;;;;;;;;;;5054220;28;20039;-81
2022/11/27 02:22:51;;;;;;;12.00;5.10;;;;;;;;;;5059574;28;20056;-82
2022/11/27 02:25:18;;;;;;;17.23;3.97;;;;;;;;;;5050535;28;20138;-82
2022/11/27 02:28:17;;;;;;;17.30;5.47;;;;;;;;;;5058231;28;20055;-82
2022/11/27 02:30:51;;;;;;;13.00;4.65;;;;;;;;;;5057653;28;20081;-82
2022/11/27 02:33:18;;;;;;;;;;;;;;;;;;5056852;28;20056;-81
2022/11/27 02:35:51;;;;;;;12.98;4.03;;;;;;;;;;5058912;28;43849;-81
2022/11/27 02:38:31;;;;;;;19.65;4.15;;;;;;;;;;5057064;28;20061;-82
2022/11/27 02:41:10;;;;;;;18.92;4.18;;;;;;;;;;5055194;28;20042;-82
2022/11/27 02:43:43;;;;;;;13.35;4.15;;;;;;;;;;5051217;28;20093;-82
2022/11/27 02:46:10;;;;;;;13.07;3.85;;;;;;;;;;5067112;28;20053;-82
2022/11/27 02:48:40;;;;;;;15.75;4.65;;;;;;;;;;5050718;28;20073;-81
2022/11/27 02:51:07;;;;;;;13.90;4.22;;;;;;;;;;5051162;28;20053;-82
2022/11/27 02:53:39;;;;;;;13.35;4.40;;;;;;;;;;5055093;28;20144;-82
2022/11/27 02:56:08;;;;;;;12.38;4.38;;;;;;;;;;5053717;28;20049;-82
2022/11/27 02:58:36;;;;;;;14.95;4.53;;;;;;;;;;5056445;28;20069;-81
2022/11/27 03:01:04;;;;;;;12.30;4.38;;;;;;;;;;5053440;28;20054;-81
2022/11/27 03:03:35;;;;;;;17.02;4.30;;;;;;;;;;5052382;28;20037;-81
2022/11/27 03:06:08;;;;;;;16.17;4.72;;;;;;;;;;5052340;28;20075;-81
2022/11/27 03:08:56;;;;;;;14.85;4.05;;;;;;;;;;5058905;28;20053;-82
2022/11/27 03:11:23;;;;;;;15.43;4.43;;;;;;;;;;5040632;28;20169;-82
2022/11/27 03:13:54;;;;;;;16.25;5.03;;;;;;;;;;5050079;28;20034;-81
2022/11/27 03:16:40;;;;;;;17.85;5.28;;;;;;;;;;5055542;28;20133;-82
2022/11/27 03:19:16;;;;;;;12.77;4.40;;;;;;;;;;5052120;28;20622;-82
2022/11/27 03:21:44;;;;;;;12.98;4.40;;;;;;;;;;5048773;28;20045;-82
2022/11/27 03:24:12;;;;;;;10.10;4.22;;;;;;;;;;5060122;28;20766;-82
2022/11/27 03:26:40;;;;;;;11.43;4.20;;;;;;;;;;5049366;28;20078;-82
2022/11/27 03:29:10;;;;;;;12.20;4.32;;;;;;;;;;5060116;28;20049;-81
2022/11/27 03:31:40;;;;;;;11.93;4.35;;;;;;;;;;5059428;28;20050;-82
2022/11/27 03:34:08;;;;;;;12.43;4.05;;;;;;;;;;5058026;28;20896;-81
2022/11/27 03:36:39;;;;;;;14.40;4.38;;;;;;;;;;5060269;28;20057;-82
2022/11/27 03:39:06;;;;;;;14.95;4.22;;;;;;;;;;5054848;28;20110;-81
2022/11/27 03:41:55;;;;;;;18.15;4.35;;;;;;;;;;5057638;28;20046;-81
2022/11/27 03:44:23;;;;;;;12.38;4.40;;;;;;;;;;5058822;28;20061;-82
2022/11/27 03:46:54;;;;;;;13.55;4.40;;;;;;;;;;5060514;28;20053;-82
2022/11/27 03:49:29;;;;;;;13.88;4.38;;;;;;;;;;5053379;28;20052;-81
2022/11/27 03:52:02;;;;;;;14.57;5.15;;;;;;;;;;5061098;28;20037;-81
2022/11/27 03:54:41;;;;;;;13.35;4.70;;;;;;;;;;5052802;28;20045;-82
2022/11/27 03:57:12;;;;;;;11.40;4.18;;;;;;;;;;5056963;28;20088;-81
2022/11/27 03:59:42;;;;;;;15.98;4.90;;;;;;;;;;5050433;28;20064;-82
2022/11/27 04:02:13;;;;;;;12.30;4.05;;;;;;;;;;5052153;28;20073;-82
2022/11/27 04:04:41;;;;;;;12.75;4.07;;;;;;;;;;5054491;28;20050;-81
2022/11/27 04:07:16;;;;;;;18.33;4.30;;;;;;;;;;5058048;28;20045;-81
2022/11/27 04:09:43;;;;;;;15.90;4.57;;;;;;;;;;5059778;28;20140;-82
2022/11/27 04:12:12;;;;;;;11.00;4.15;;;;;;;;;;5059285;28;20041;-81
2022/11/27 04:14:39;;;;;;;10.93;4.05;;;;;;;;;;5054732;28;20057;-81
2022/11/27 04:17:10;;;;;;;15.15;4.25;;;;;;;;;;5058243;28;20045;-81
2022/11/27 04:19:38;;;;;;;10.73;3.65;;;;;;;;;;5055687;28;20050;-81
2022/11/27 04:22:05;;;;;;;11.30;3.88;;;;;;;;;;5056638;28;20049;-81
2022/11/27 04:24:41;;;;;;;8.32;3.83;;;;;;;;;;5055049;28;20049;-81
2022/11/27 04:27:12;;;;;;;9.85;3.65;;;;;;;;;;5053071;28;20054;-81
2022/11/27 04:29:39;;;;;;;10.50;4.43;;;;;;;;;;5056351;28;20049;-81
2022/11/27 04:32:06;;;;;;;13.27;3.75;;;;;;;;;;5063271;28;20124;-80
2022/11/27 04:34:36;;;;;;;10.93;3.80;;;;;;;;;;5053070;28;20152;-81
2022/11/27 04:37:03;;;;;;;11.30;3.92;;;;;;;;;;5061074;28;20050;-81
2022/11/27 04:39:31;;;;;;;12.32;3.50;;;;;;;;;;5055938;28;20042;-82
2022/11/27 04:41:58;;;;;;;11.18;3.70;;;;;;;;;;5059381;28;20034;-81
2022/11/27 04:44:26;;;;;;;15.13;3.55;;;;;;;;;;5059558;28;20136;-81
2022/11/27 04:46:53;;;;;;;10.75;3.50;;;;;;;;;;5059860;28;20136;-81
2022/11/27 04:49:21;;;;;;;8.75;3.42;;;;;;;;;;5055466;28;20049;-81
2022/11/27 04:51:48;;;;;;;11.35;3.88;;;;;;;;;;5074788;28;20045;-81
2022/11/27 04:54:16;;;;;;;12.20;3.92;;;;;;;;;;5049885;28;20034;-81
2022/11/27 04:56:44;;;;;;;9.57;3.92;;;;;;;;;;5059105;28;20049;-81
2022/11/27 04:59:12;;;;;;;12.10;3.90;;;;;;;;;;5051368;28;20057;-81
2022/11/27 05:01:39;;;;;;;12.15;3.45;;;;;;;;;;5058363;28;20109;-81
2022/11/27 05:04:06;;;;;;;10.50;3.45;;;;;;;;;;5047180;28;20054;-81
2022/11/27 05:06:34;;;;;;;14.57;3.15;;;;;;;;;;5069816;28;20058;-81
2022/11/27 05:09:01;;;;;;;11.80;3.10;;;;;;;;;;5058462;28;20045;-81
2022/11/27 05:11:32;;;;;;;7.47;3.08;;;;;;;;;;5056790;28;20100;-81
2022/11/27 05:14:16;;;;;;;9.88;3.17;;;;;;;;;;5053299;28;20329;-81
2022/11/27 05:16:44;;;;;;;;;;;;;;;;;;5055725;28;20057;-81
2022/11/27 05:19:14;;;;;;;9.40;3.40;;;;;;;;;;5053273;28;44575;-81
2022/11/27 05:21:46;;;;;;;9.02;3.22;;;;;;;;;;5057463;28;20054;-81
2022/11/27 05:24:15;;;;;;;12.55;3.47;;;;;;;;;;5056171;28;20111;-81
2022/11/27 05:26:42;;;;;;;10.70;3.40;;;;;;;;;;5048775;28;20096;-81
2022/11/27 05:29:10;;;;;;;9.75;3.38;;;;;;;;;;5051996;28;20049;-81
2022/11/27 05:31:38;;;;;;;7.18;2.90;;;;;;;;;;5059393;28;20046;-81
2022/11/27 05:34:06;;;;;;;11.68;3.80;;;;;;;;;;5058124;28;20056;-81
2022/11/27 05:36:36;;;;;;;10.65;3.30;;;;;;;;;;5053485;28;20066;-81
2022/11/27 05:39:07;;;;;;;9.50;2.97;;;;;;;;;;5055213;28;20100;-81
2022/11/27 05:41:36;;;;;;;;;;;;;;;;;;5058714;28;20057;-81
2022/11/27 05:44:04;;;;;;;5.88;3.00;;;;;;;;;;5053486;28;42503;-80
2022/11/27 05:46:32;;;;;;;12.27;2.80;;;;;;;;;;5050092;28;20050;-81
2022/11/27 05:49:00;;;;;;;9.45;2.83;;;;;;;;;;5058882;28;20080;-80
2022/11/27 05:51:27;;;;;;;9.52;3.42;;;;;;;;;;5049547;28;20042;-81
2022/11/27 05:53:55;;;;;;;13.70;2.88;;;;;;;;;;5056553;28;20049;-81
2022/11/27 05:56:22;;;;;;;9.50;3.10;;;;;;;;;;5061935;28;20049;-81
2022/11/27 05:58:52;;;;;;;14.07;3.35;;;;;;;;;;5057109;28;20053;-81
2022/11/27 06:01:20;;;;;;;9.25;2.90;;;;;;;;;;5055823;28;21022;-81
2022/11/27 06:03:47;;;;;;;10.60;2.92;;;;;;;;;;5054202;28;20054;-81
2022/11/27 06:06:18;;;;;;;6.47;2.70;;;;;;;;;;5053166;28;20144;-81
2022/11/27 06:08:46;;;;;;;6.40;2.78;;;;;;;;;;5052142;28;20110;-81
2022/11/27 06:11:18;;;;;;;6.70;2.63;;;;;;;;;;5059242;28;20129;-81
2022/11/27 06:13:45;;;;;;;14.18;3.88;;;;;;;;;;5059200;28;20095;-81
2022/11/27 06:16:20;;;;;;;8.25;3.08;;;;;;;;;;5055321;28;20061;-81
2022/11/27 06:18:50;;;;;;;7.22;3.00;;;;;;;;;;5050437;28;20085;-81
2022/11/27 06:21:19;;;;;;;10.95;3.58;;;;;;;;;;5056279;28;20124;-81
2022/11/27 06:23:47;;;;;;;12.77;3.35;;;;;;;;;;5045532;28;20058;-81
2022/11/27 06:26:19;;;;;;;9.60;3.13;;;;;;;;;;5071815;28;20046;-82
2022/11/27 06:28:47;;;;;;;8.77;3.08;;;;;;;;;;5055516;28;20056;-81
2022/11/27 06:31:16;;;;;;;12.77;3.40;;;;;;;;;;5057184;28;20150;-81
2022/11/27 06:33:45;;;;;;;7.65;3.03;;;;;;;;;;5049479;28;20054;-81
2022/11/27 06:36:16;;;;;;;7.07;2.97;;;;;;;;;;5059413;28;20108;-81
2022/11/27 06:38:43;;;;;;;10.07;3.25;;;;;;;;;;5058715;28;20053;-81
2022/11/27 06:41:12;;;;;;;7.57;3.00;;;;;;;;;;5059853;28;20047;-81
2022/11/27 06:43:42;;;;;;;12.55;3.00;;;;;;;;;;5052936;28;20061;-81
2022/11/27 06:46:12;;;;;;;10.00;3.03;;;;;;;;;;5058347;28;20148;-82
2022/11/27 06:48:40;;;;;;;7.85;2.90;;;;;;;;;;5055437;28;20053;-81
2022/11/27 06:51:09;;;;;;;10.50;2.92;;;;;;;;;;5053998;28;20045;-81
2022/11/27 06:53:37;;;;;;;7.35;3.25;;;;;;;;;;5049300;28;20508;-81
2022/11/27 06:56:08;;;;;;;12.73;3.50;;;;;;;;;;5055160;28;20072;-81
2022/11/27 06:58:36;;;;;;;9.07;3.15;;;;;;;;;;5057186;28;20989;-81
2022/11/27 07:01:07;;;;;;;10.25;2.60;;;;;;;;;;5062447;28;20049;-81
2022/11/27 07:03:40;;;;;;;6.38;2.72;;;;;;;;;;5056213;28;20041;-81
2022/11/27 07:06:08;;;;;;;8.07;2.70;;;;;;;;;;5058054;28;20053;-81
2022/11/27 07:08:39;;;;;;;8.50;3.10;;;;;;;;;;5059814;28;20055;-81
2022/11/27 07:11:19;;;;;;;9.73;3.15;;;;;;;;;;5058725;28;20152;-81
2022/11/27 07:13:48;;;;;;;9.77;2.97;;;;;;;;;;5057796;28;20050;-81
2022/11/27 07:16:17;;;;;;;11.27;2.92;;;;;;;;;;5057576;28;20059;-81
2022/11/27 07:18:48;;;;;;;9.90;3.13;;;;;;;;;;5056689;28;20056;-81
2022/11/27 07:21:16;;;;;;;9.02;2.85;;;;;;;;;;5055116;28;20085;-80
2022/11/27 07:23:44;;;;;;;7.63;2.90;;;;;;;;;;5052147;28;20026;-81
2022/11/27 07:26:17;;;;;;;13.23;3.65;;;;;;;;;;5056514;28;20106;-81
2022/11/27 07:28:45;;;;;;;13.25;3.47;;;;;;;;;;5056782;28;20077;-81
2022/11/27 07:31:12;;;;;;;9.95;3.30;;;;;;;;;;5053950;28;20038;-81
2022/11/27 07:33:40;;;;;;;9.38;3.33;;;;;;;;;;5055014;28;20050;-82
2022/11/27 07:36:10;;;;;;;9.48;3.42;;;;;;;;;;5054304;28;20148;-82
2022/11/27 07:38:41;;;;;;;7.97;2.80;;;;;;;;;;5060684;28;20041;-82
2022/11/27 07:41:12;;;;;;;13.73;3.72;;;;;;;;;;5058546;28;20064;-82
2022/11/27 07:43:42;;;;;;;9.32;3.55;;;;;;;;;;5055662;28;20053;-82
2022/11/27 07:46:11;;;;;;;11.85;3.72;;;;;;;;;;5058524;28;20053;-82
2022/11/27 07:48:45;;;;;;;7.65;3.40;;;;;;;;;;5054977;28;20054;-81
2022/11/27 07:51:14;;;;;;;8.73;3.22;;;;;;;;;;5071210;28;20061;-82
2022/11/27 07:53:42;;;;;;;9.55;3.25;;;;;;;;;;5061343;28;20109;-82
2022/11/27 07:56:12;;;;;;;9.05;3.30;;;;;;;;;;5054525;28;20049;-82
2022/11/27 07:58:40;;;;;;;11.88;3.67;;;;;;;;;;5053202;28;20819;-81
2022/11/27 08:01:11;;;;;;;8.80;3.40;;;;;;;;;;5055038;28;20033;-82
2022/11/27 08:03:45;;;;;;;11.45;3.70;;;;;;;;;;5055419;28;20060;-82
2022/11/27 08:06:13;;;;;;;11.35;3.42;;;;;;;;;;5057756;28;20144;-82
2022/11/27 08:08:41;;;;;;;12.88;3.45;;;;;;;;;;5061156;28;20079;-82
2022/11/27 08:11:28;;;;;;;7.80;3.10;;;;;;;;;;5057134;28;20049;-82
2022/11/27 08:13:57;;;;;;;7.53;3.38;;;;;;;;;;5060533;28;20049;-82
2022/11/27 08:16:32;;;;;;;8.30;3.70;;;;;;;;;;5059701;28;20198;-83
2022/11/27 08:19:04;;;;;;;10.02;3.88;;;;;;;;;;5061271;28;20058;-82
2022/11/27 08:21:32;;;;;;;11.63;3.40;;;;;;;;;;5058044;28;20045;-82
2022/11/27 08:24:00;;;;;;;14.20;4.13;;;;;;;;;;5063073;28;20088;-83
2022/11/27 08:26:28;;;;;;;11.52;3.72;;;;;;;;;;5057738;28;20082;-83
2022/11/27 08:29:00;;;;;;;14.38;4.47;;;;;;;;;;5059146;28;20053;-83
2022/11/27 08:31:28;;;;;;;9.00;3.67;;;;;;;;;;5059209;28;20064;-82
2022/11/27 08:33:57;;;;;;;11.50;3.85;;;;;;;;;;5058273;28;20105;-82
2022/11/27 08:36:25;;;;;;;13.80;3.67;;;;;;;;;;5065580;28;20073;-83
2022/11/27 08:38:54;;;;;;;9.05;4.15;;;;;;;;;;5038229;28;20054;-83
2022/11/27 08:41:24;;;;;;;11.30;4.07;;;;;;;;;;5023940;28;20094;-83
2022/11/27 08:43:51;;;;;;;8.98;3.92;;;;;;;;;;5036557;28;20094;-82
2022/11/27 08:46:19;;;;;;;11.35;4.13;;;;;;;;;;5027036;28;20113;-83
2022/11/27 08:48:46;;;;;;;12.30;3.53;;;;;;;;;;5020090;28;20073;-82
2022/11/27 08:51:15;;;;;;;10.10;3.95;;;;;;;;;;5039264;28;20138;-82
2022/11/27 08:53:44;;;;;;;11.00;4.03;;;;;;;;;;5022979;28;20034;-83
2022/11/27 08:56:12;;;;;;;9.05;3.75;;;;;;;;;;5037071;28;20061;-82
2022/11/27 08:58:39;;;;;;;10.98;3.95;;;;;;;;;;5034500;28;20802;-82
2022/11/27 09:01:14;;;;;;;9.05;3.72;;;;;;;;;;5036262;28;20046;-82
2022/11/27 09:03:42;;;;;;;11.32;4.32;;;;;;;;;;5039508;28;20034;-82
2022/11/27 09:06:17;;;;;;;13.60;4.53;;;;;;;;;;5042165;28;20034;-83
2022/11/27 09:08:45;;;;;;;15.15;4.45;;;;;;;;;;5042544;28;20101;-82
2022/11/27 09:11:13;;;;;;;10.55;4.20;;;;;;;;;;5040081;28;20046;-83
2022/11/27 09:13:42;;;;;;;11.15;4.13;;;;;;;;;;5017209;28;20034;-82
2022/11/27 09:16:11;;;;;;;10.90;4.20;;;;;;;;;;5024007;28;20080;-82
2022/11/27 09:18:40;;;;;;;15.90;4.40;;;;;;;;;;5025251;28;20045;-83
2022/11/27 09:21:15;;;;;;;16.98;5.13;;;;;;;;;;5042247;28;20105;-82
2022/11/27 09:23:43;;;;;;;10.35;4.22;;;;;;;;;;5043688;28;20042;-83
2022/11/27 09:26:17;;;;;;;13.98;5.15;;;;;;;;;;5029690;28;20057;-82
2022/11/27 09:28:45;;;;;;;11.73;4.57;;;;;;;;;;5027939;28;20106;-83
2022/11/27 09:31:16;;;;;;;15.27;4.72;;;;;;;;;;5039852;28;20057;-82
2022/11/27 09:33:47;;;;;;;14.88;4.93;;;;;;;;;;5038139;28;20056;-82
2022/11/27 09:36:18;;;;;;;11.73;5.00;;;;;;;;;;5041391;28;20050;-82
2022/11/27 09:38:45;;;;;;;15.00;5.25;;;;;;;;;;5060728;28;20060;-82
2022/11/27 09:41:13;;;;;;;16.83;5.45;;;;;;;;;;5063318;28;20041;-82
2022/11/27 09:43:50;;;;;;;12.57;4.80;;;;;;;;;;5059729;28;20046;-82
2022/11/27 09:46:22;;;;;;;10.70;4.88;;;;;;;;;;5059184;28;20039;-82
2022/11/27 09:48:50;;;;;;;9.00;4.85;;;;;;;;;;5060653;28;20049;-82
2022/11/27 09:51:27;;;;;;;12.52;4.70;;;;;;;;;;5063344;28;20038;-81
2022/11/27 09:53:57;;;;;;;12.45;4.82;;;;;;;;;;5058036;28;20219;-83
2022/11/27 09:56:25;;;;;;;15.57;5.20;;;;;;;;;;5058132;28;20049;-82
2022/11/27 09:58:58;;;;;;;12.23;4.97;;;;;;;;;;5067144;28;20056;-82
2022/11/27 10:01:27;;;;;;;15.23;5.05;;;;;;;;;;5059669;28;20042;-82
2022/11/27 10:04:12;;;;;;;17.30;4.85;;;;;;;;;;5066502;28;20046;-82
2022/11/27 10:06:58;;;;;;;12.98;4.70;;;;;;;;;;5055072;28;20049;-82
2022/11/27 10:09:44;;;;;;;11.45;5.40;;;;;;;;;;5054869;28;20037;-82
2022/11/27 10:12:21;;;;;;;12.80;5.22;;;;;;;;;;5060500;28;20051;-82
2022/11/27 10:14:49;;;;;;;10.65;5.30;;;;;;;;;;5061242;28;21230;-83
2022/11/27 10:17:25;;;;;;;12.63;5.28;;;;;;;;;;5063792;28;20769;-83
2022/11/27 10:19:58;;;;;;;9.25;5.05;;;;;;;;;;5065598;28;20044;-82
2022/11/27 10:22:30;;;;;;;12.80;5.05;;;;;;;;;;5063957;28;20033;-82
2022/11/27 10:25:20;;;;;;;11.90;5.55;;;;;;;;;;5077052;28;20045;-82
2022/11/27 10:28:02;;;;;;;14.98;5.00;;;;;;;;;;5059028;28;20063;-83
2022/11/27 10:30:36;;;;;;;13.52;5.88;;;;;;;;;;5048530;28;20054;-83
2022/11/27 10:33:15;;;;;;;13.32;5.50;;;;;;;;;;5055527;28;20057;-83
2022/11/27 10:35:43;;;;;;;13.05;5.50;;;;;;;;;;5057790;28;20058;-82
2022/11/27 10:38:20;;;;;;;11.07;4.88;;;;;;;;;;5062572;28;20105;-83
2022/11/27 10:41:02;;;;;;;14.23;6.25;;;;;;;;;;5049686;28;20755;-83
2022/11/27 10:43:31;;;;;;;13.30;5.40;;;;;;;;;;5058318;28;20943;-83
2022/11/27 10:46:02;;;;;;;17.13;5.43;;;;;;;;;;5049947;28;20089;-83
2022/11/27 10:48:33;;;;;;;11.15;4.88;;;;;;;;;;5051957;28;20152;-83
2022/11/27 10:51:23;;;;;;;14.38;5.85;;;;;;;;;;5050827;28;20053;-83
2022/11/27 10:53:54;;;;;;;10.85;5.10;;;;;;;;;;5049116;28;20100;-83
2022/11/27 10:56:21;;;;;;;11.43;5.30;;;;;;;;;;5051809;28;20125;-83
2022/11/27 10:58:59;;;;;;;15.32;5.65;;;;;;;;;;5053106;28;20346;-83
2022/11/27 11:04:43;;;;;;;10.13;5.10;;;;;;;;;;5031964;28;20111;-82
2022/11/27 11:07:24;;;;;;;13.77;5.20;;;;;;;;;;5052299;28;20553;-83
2022/11/27 11:09:53;;;;;;;14.30;5.72;;;;;;;;;;5075868;28;20053;-83
2022/11/27 11:12:21;;;;;;;14.93;6.10;;;;;;;;;;5066916;28;20049;-83
2022/11/27 11:14:51;;;;;;;10.60;4.95;;;;;;;;;;5054691;28;20053;-83
2022/11/27 11:17:27;;;;;;;9.38;5.00;;;;;;;;;;5050718;28;20104;-83
2022/11/27 11:23:27;;;;;;;11.90;4.95;;;;;;;;;;4973889;28;20051;-83
2022/11/27 11:26:01;;;;;;;10.48;4.90;;;;;;;;;;4974781;28;20066;-83
2022/11/27 11:28:29;;;;;;;9.68;4.88;;;;;;;;;;4976510;28;20072;-83
2022/11/27 11:31:09;;;;;;;10.57;4.85;;;;;;;;;;4972410;28;20122;-83
2022/11/27 11:33:50;;;;;;;11.30;5.03;;;;;;;;;;4974750;28;20050;-83
2022/11/27 11:36:17;;;;;;;12.70;5.05;;;;;;;;;;4976841;28;20083;-82
2022/11/27 11:38:46;;;;;;;8.45;4.90;;;;;;;;;;4976183;28;20043;-82
2022/11/27 11:41:17;;;;;;;8.77;4.85;;;;;;;;;;5024868;28;20042;-83
2022/11/27 11:43:55;;;;;;;12.32;5.10;;;;;;;;;;5063680;28;20054;-82
2022/11/27 11:46:25;;;;;;;10.40;4.88;;;;;;;;;;5060631;28;20613;-82
2022/11/27 11:48:54;;;;;;;9.60;4.88;;;;;;;;;;5062668;28;20072;-83
2022/11/27 11:51:46;;;;;;;11.75;5.20;;;;;;;;;;5056528;28;20049;-82
2022/11/27 11:54:20;;;;;;;11.45;5.20;;;;;;;;;;5063832;28;20053;-83
2022/11/27 11:56:52;;;;;;;14.13;5.30;;;;;;;;;;5054496;28;20106;-82
2022/11/27 11:59:33;;;;;;;10.27;5.00;;;;;;;;;;5055355;28;20054;-82
2022/11/27 12:02:25;;;;;;;10.13;4.32;;;;;;;;;;5058532;28;20080;-82
2022/11/27 12:05:05;;;;;;;12.50;5.43;;;;;;;;;;5054851;28;20042;-82
2022/11/27 12:07:51;;;;;;;10.65;4.88;;;;;;;;;;5056924;28;20956;-83
2022/11/27 12:10:56;;;;;;;10.07;4.45;;;;;;;;;;5056019;28;20112;-83
2022/11/27 12:13:40;;;;;;;9.73;5.15;;;;;;;;;;5053184;28;20076;-82
2022/11/27 12:16:18;;;;;;;9.07;4.65;;;;;;;;;;5063213;28;20045;-83
2022/11/27 12:22:48;;;;;;;9.77;4.72;;;;;;;;;;4975176;28;20044;-82
2022/11/27 12:25:49;;;;;;;11.37;5.73;;;;;;;;;;4976783;28;20054;-81
2022/11/27 12:28:44;;;;;;;10.73;5.10;;;;;;;;;;4971827;28;20057;-82
2022/11/27 12:31:20;;;;;;;7.63;4.75;;;;;;;;;;4961480;28;20054;-82
2022/11/27 12:33:50;;;;;;;12.65;5.10;;;;;;;;;;4979971;28;20139;-81
2022/11/27 12:36:47;;;;;;;11.27;4.72;;;;;;;;;;5011238;28;20050;-82
2022/11/27 12:39:58;;;;;;;12.07;5.25;;;;;;;;;;4973585;28;20051;-82
2022/11/27 12:43:03;;;;;;;10.35;4.85;;;;;;;;;;4969186;28;20043;-82
2022/11/27 12:45:43;;;;;;;12.90;5.18;;;;;;;;;;4957438;28;20757;-82
2022/11/27 12:48:12;;;;;;;10.10;5.10;;;;;;;;;;4964515;28;20684;-81
2022/11/27 12:50:43;;;;;;;9.73;4.88;;;;;;;;;;4974245;28;20052;-82
2022/11/27 12:53:23;;;;;;;8.27;4.97;;;;;;;;;;4961613;28;20042;-82
2022/11/27 12:56:02;;;;;;;11.38;5.30;;;;;;;;;;4981532;28;20046;-82
2022/11/27 12:58:37;;;;;;;12.05;4.80;;;;;;;;;;4973031;28;20039;-82
2022/11/27 13:01:16;;;;;;;11.80;5.50;;;;;;;;;;4993850;28;20076;-82
2022/11/27 13:04:01;;;;;;;10.45;4.95;;;;;;;;;;5000606;28;20046;-82
2022/11/27 13:06:33;;;;;;;14.38;5.28;;;;;;;;;;5051509;28;20056;-82
2022/11/27 13:09:05;;;;;;;12.40;5.53;;;;;;;;;;5053660;28;20117;-81
2022/11/27 13:11:35;;;;;;;13.82;5.15;;;;;;;;;;5054950;28;20053;-81
2022/11/27 13:14:12;;;;;;;12.40;5.60;;;;;;;;;;5054519;28;20053;-81
2022/11/27 13:16:53;;;;;;;11.23;5.20;;;;;;;;;;5045685;28;20504;-81
2022/11/27 13:19:29;;;;;;;13.82;5.82;;;;;;;;;;5047612;28;20045;-81
2022/11/27 13:21:57;;;;;;;8.85;5.10;;;;;;;;;;5049527;28;20081;-82
2022/11/27 13:24:25;;;;;;;10.18;4.85;;;;;;;;;;5049329;28;20038;-82
2022/11/27 13:27:02;;;;;;;8.50;4.65;;;;;;;;;;5056353;28;20052;-81
2022/11/27 13:29:56;;;;;;;11.50;6.00;;;;;;;;;;5053904;28;20053;-82
2022/11/27 13:32:42;;;;;;;9.73;4.80;;;;;;;;;;5042956;28;20128;-82
2022/11/27 13:35:31;;;;;;;9.38;5.05;;;;;;;;;;5050521;28;20045;-82
2022/11/27 13:38:02;;;;;;;12.38;5.22;;;;;;;;;;5049645;28;20093;-82
2022/11/27 13:40:43;;;;;;;8.57;4.85;;;;;;;;;;5073364;28;20526;-83
2022/11/27 13:43:20;;;;;;;10.30;5.32;;;;;;;;;;5069279;28;20049;-81
2022/11/27 13:45:50;;;;;;;10.82;5.30;;;;;;;;;;5057487;28;20187;-81
2022/11/27 13:48:29;;;;;;;13.70;5.55;;;;;;;;;;5055779;28;20045;-81
2022/11/27 13:50:59;;;;;;;8.45;4.90;;;;;;;;;;5056496;28;20065;-82
2022/11/27 13:53:35;;;;;;;11.40;5.45;;;;;;;;;;5071157;28;20042;-82
2022/11/27 13:56:09;;;;;;;9.75;5.18;;;;;;;;;;5051954;28;20052;-81
2022/11/27 13:58:42;;;;;;;12.38;5.03;;;;;;;;;;5069519;28;20054;-82
2022/11/27 14:01:15;;;;;;;12.65;5.65;;;;;;;;;;5061295;28;20101;-82
2022/11/27 14:03:46;;;;;;;8.48;5.07;;;;;;;;;;5054401;28;20113;-82
2022/11/27 14:06:15;;;;;;;9.60;5.60;;;;;;;;;;5048686;28;20046;-82
2022/11/27 14:08:55;;;;;;;8.77;5.50;;;;;;;;;;5055294;28;20128;-82
2022/11/27 14:11:30;;;;;;;12.23;5.63;;;;;;;;;;5052554;28;21104;-82
2022/11/27 14:14:00;;;;;;;10.93;5.60;;;;;;;;;;5057473;28;20073;-82
2022/11/27 14:16:31;;;;;;;14.75;5.72;;;;;;;;;;5050764;28;20052;-81
2022/11/27 14:19:03;;;;;;;11.40;5.47;;;;;;;;;;5054692;28;20101;-82
2022/11/27 14:21:39;;;;;;;10.60;5.55;;;;;;;;;;5061523;28;20046;-82
2022/11/27 14:24:25;;;;;;;12.50;5.72;;;;;;;;;;5062099;28;20057;-82
2022/11/27 14:26:57;;;;;;;9.18;5.97;;;;;;;;;;5062562;28;20059;-82
2022/11/27 14:29:29;;;;;;;12.68;5.72;;;;;;;;;;5051907;28;20077;-81
2022/11/27 14:32:00;;;;;;;10.30;5.40;;;;;;;;;;5052776;28;20049;-82
2022/11/27 14:34:32;;;;;;;9.20;5.85;;;;;;;;;;5053036;28;20113;-81
2022/11/27 14:37:02;;;;;;;13.85;5.70;;;;;;;;;;5046867;28;20483;-82
2022/11/27 14:39:32;;;;;;;12.57;5.90;;;;;;;;;;5050193;28;20049;-82
2022/11/27 14:42:06;;;;;;;12.70;6.22;;;;;;;;;;5065486;28;20042;-82
2022/11/27 14:44:39;;;;;;;14.75;6.13;;;;;;;;;;5047329;28;20096;-81
2022/11/27 14:47:07;;;;;;;9.68;5.65;;;;;;;;;;5048395;28;20133;-82
2022/11/27 14:49:40;;;;;;;10.93;5.95;;;;;;;;;;5045005;28;20511;-81
2022/11/27 14:52:12;;;;;;;11.25;5.75;;;;;;;;;;5042525;28;20093;-80
2022/11/27 14:54:40;;;;;;;11.57;5.68;;;;;;;;;;5052540;28;20058;-81
2022/11/27 14:57:13;;;;;;;12.63;5.85;;;;;;;;;;5050026;28;20042;-81
2022/11/27 14:59:43;;;;;;;13.05;6.32;;;;;;;;;;5049630;28;20142;-81
2022/11/27 15:02:13;;;;;;;13.57;6.03;;;;;;;;;;5046623;28;20049;-81
2022/11/27 15:04:42;;;;;;;12.25;6.35;;;;;;;;;;5058866;28;20135;-81
2022/11/27 15:07:16;;;;;;;10.23;5.85;;;;;;;;;;5045962;28;20049;-82
2022/11/27 15:09:46;;;;;;;13.40;6.15;;;;;;;;;;5050378;28;20053;-82
2022/11/27 15:12:21;;;;;;;11.88;6.13;;;;;;;;;;5045166;28;20049;-81
2022/11/27 15:14:54;;;;;;;16.95;5.63;;;;;;;;;;5040162;28;20050;-81